Time;durP1;ratioP1;P1;durP2;ratioP2;P2;SDS_P1;SDS_P2;PMS_P1;PMS_P2;Temp;Humidity;BMP_temperature;BMP_pressure;BME280_temperature;BME280_humidity;BME280_pressure;Samples;Min_cycle;Max_cycle;Signal;HPM_P1;HPM_P2
2021/08/10 00:00:28;;;;;;;9.38;6.95;;;;;;;26.02;38.42;94151.09;4999026;28;20049;-77
2021/08/10 00:02:54;;;;;;;7.97;6.97;;;;;;;26.01;38.64;94149.53;4990921;28;20034;-77
2021/08/10 00:05:19;;;;;;;7.65;6.35;;;;;;;25.89;38.49;94133.69;4999371;28;20069;-77
2021/08/10 00:07:45;;;;;;;9.18;6.35;;;;;;;26.02;39.04;94148.38;4995629;28;20032;-77
2021/08/10 00:10:10;;;;;;;10.32;6.78;;;;;;;25.81;38.64;94124.78;4993331;28;20033;-77
2021/08/10 00:12:36;;;;;;;13.52;6.68;;;;;;;25.83;38.67;94144.22;4992100;28;20038;-77
2021/08/10 00:15:03;;;;;;;9.75;6.80;;;;;;;25.73;39.19;94152.47;4995308;28;20523;-78
2021/08/10 00:17:29;;;;;;;10.70;7.57;;;;;;;25.63;39.02;94122.22;5000198;28;20136;-77
2021/08/10 00:19:54;;;;;;;9.95;7.53;;;;;;;25.63;38.96;94135.81;4990436;28;20037;-77
2021/08/10 00:22:20;;;;;;;6.60;5.90;;;;;;;25.64;39.09;94145.56;4999257;28;20493;-77
2021/08/10 00:24:45;;;;;;;10.98;6.15;;;;;;;25.53;38.96;94139.41;4996755;28;20439;-77
2021/08/10 00:27:10;;;;;;;6.68;6.03;;;;;;;25.53;39.45;94141.34;4998026;28;20056;-77
2021/08/10 00:29:36;;;;;;;9.10;6.35;;;;;;;25.48;39.32;94148.00;4992872;28;20666;-77
2021/08/10 00:32:01;;;;;;;8.90;6.43;;;;;;;25.45;39.10;94137.13;4997660;28;20344;-77
2021/08/10 00:34:26;;;;;;;7.63;5.93;;;;;;;25.25;39.72;94132.19;4996794;28;20053;-77
2021/08/10 00:36:52;;;;;;;8.35;6.68;;;;;;;25.33;39.48;94148.47;4996056;28;20044;-77
2021/08/10 00:39:17;;;;;;;8.27;6.55;;;;;;;25.17;39.75;94130.69;4997164;28;20046;-77
2021/08/10 00:41:43;;;;;;;12.88;6.72;;;;;;;25.09;39.62;94120.22;4994896;28;20077;-77
2021/08/10 00:44:10;;;;;;;9.57;6.70;;;;;;;25.28;39.00;94130.59;4992447;28;20031;-77
2021/08/10 00:46:35;;;;;;;8.43;6.90;;;;;;;25.25;39.19;94136.84;4997482;28;20030;-77
2021/08/10 00:49:01;;;;;;;10.05;6.15;;;;;;;25.14;39.35;94122.53;5001071;28;20095;-77
2021/08/10 00:51:26;;;;;;;9.52;6.63;;;;;;;23.97;39.80;93968.84;4996095;28;20060;-77
2021/08/10 00:53:52;;;;;;;8.07;6.97;;;;;;;24.95;40.34;94128.47;4988871;28;20516;-77
2021/08/10 00:56:18;;;;;;;9.18;6.70;;;;;;;25.00;40.27;94130.78;4992221;28;20142;-77
2021/08/10 00:58:43;;;;;;;8.30;6.82;;;;;;;25.05;40.26;94127.63;4997157;28;20136;-77
2021/08/10 01:01:08;;;;;;;11.38;6.90;;;;;;;25.00;40.31;94125.31;4992082;28;20010;-77
2021/08/10 01:03:34;;;;;;;7.90;6.32;;;;;;;24.81;40.33;94102.13;4997975;28;20378;-77
2021/08/10 01:06:06;;;;;;;8.43;6.28;;;;;;;24.84;40.94;94133.94;4992724;28;20130;-76
2021/08/10 01:08:46;;;;;;;7.28;6.22;;;;;;;24.61;40.79;94126.25;4993351;28;20157;-77
2021/08/10 01:11:39;;;;;;;10.85;6.97;;;;;;;24.71;40.70;94152.69;4996313;28;20536;-77
2021/08/10 01:14:23;;;;;;;9.13;5.93;;;;;;;24.60;40.97;94151.91;4998625;28;20509;-77
2021/08/10 01:17:02;;;;;;;12.80;8.07;;;;;;;24.69;40.92;94146.03;4995640;28;20608;-77
2021/08/10 01:19:36;;;;;;;7.50;6.75;;;;;;;24.83;41.38;94159.63;4997093;28;20074;-77
2021/08/10 01:22:04;;;;;;;10.02;6.45;;;;;;;24.74;40.78;94148.38;4992429;28;20602;-76
2021/08/10 01:24:34;;;;;;;7.45;6.75;;;;;;;24.75;41.81;94158.09;4999126;28;20619;-77
2021/08/10 01:27:29;;;;;;;10.27;6.80;;;;;;;24.65;41.61;94154.22;4998428;28;20085;-77
2021/08/10 01:30:15;;;;;;;12.02;7.45;;;;;;;24.65;41.96;94153.44;4998319;28;20034;-77
2021/08/10 01:32:43;;;;;;;8.60;7.50;;;;;;;24.75;41.41;94141.78;4993327;28;20052;-77
2021/08/10 01:35:10;;;;;;;9.57;6.95;;;;;;;24.71;41.03;94140.97;4994237;28;20034;-76
2021/08/10 01:37:38;;;;;;;11.55;6.93;;;;;;;24.74;41.05;94130.13;4993414;28;20069;-77
2021/08/10 01:40:08;;;;;;;7.38;6.63;;;;;;;24.79;40.91;94126.97;4996922;28;20428;-76
2021/08/10 01:42:37;;;;;;;8.60;6.18;;;;;;;24.77;40.36;94118.47;4995719;28;20046;-77
2021/08/10 01:45:04;;;;;;;6.90;6.15;;;;;;;24.79;40.20;94120.75;4996488;28;20557;-77
2021/08/10 01:47:31;;;;;;;8.35;6.65;;;;;;;24.76;40.55;94119.63;4998677;28;20043;-77
2021/08/10 01:49:59;;;;;;;7.63;6.32;;;;;;;24.69;40.91;94116.91;4990585;28;20111;-77
2021/08/10 01:52:26;;;;;;;9.85;6.22;;;;;;;24.68;40.74;94123.53;4991990;28;20418;-76
2021/08/10 01:54:53;;;;;;;7.70;6.40;;;;;;;24.67;40.73;94108.38;4992504;28;20052;-77
2021/08/10 01:57:20;;;;;;;8.68;7.30;;;;;;;24.55;40.49;94097.91;4993409;28;20038;-76
2021/08/10 01:59:48;;;;;;;10.05;6.75;;;;;;;24.64;40.68;94114.59;4993484;28;20026;-77
2021/08/10 02:02:14;;;;;;;6.95;6.32;;;;;;;24.52;40.67;94112.31;4994675;28;20083;-76
2021/08/10 02:04:41;;;;;;;7.30;6.13;;;;;;;24.61;40.80;94120.81;4996989;28;20444;-76
2021/08/10 02:07:07;;;;;;;6.63;5.82;;;;;;;24.37;41.63;94110.81;4995602;28;20037;-77
2021/08/10 02:09:34;;;;;;;10.32;6.57;;;;;;;24.49;41.20;94124.00;4995489;28;20052;-76
2021/08/10 02:12:01;;;;;;;7.10;6.18;;;;;;;24.38;41.65;94124.03;4993240;28;20607;-77
2021/08/10 02:14:28;;;;;;;9.20;7.18;;;;;;;24.28;41.33;94124.81;4997890;28;20493;-77
2021/08/10 02:16:57;;;;;;;9.05;7.22;;;;;;;24.19;40.98;94115.53;4990057;28;20026;-77
2021/08/10 02:19:23;;;;;;;8.32;6.18;;;;;;;24.06;40.57;94106.97;4994716;28;20076;-76
2021/08/10 02:22:10;;;;;;;10.18;7.05;;;;;;;24.24;41.38;94128.72;4991733;28;20088;-76
2021/08/10 02:24:58;;;;;;;9.13;7.13;;;;;;;23.93;41.79;94138.44;4992841;28;20045;-77
2021/08/10 02:27:35;;;;;;;7.18;6.40;;;;;;;23.81;42.56;94133.41;4992099;28;20118;-76
2021/08/10 02:30:06;;;;;;;12.15;6.78;;;;;;;23.65;43.03;94120.25;4987137;28;20489;-76
2021/08/10 02:32:33;;;;;;;8.80;6.55;;;;;;;23.73;42.48;94142.72;4980929;28;20548;-77
2021/08/10 02:35:00;;;;;;;9.25;6.32;;;;;;;23.63;42.90;94138.84;4992639;28;20124;-76
2021/08/10 02:37:26;;;;;;;6.60;5.97;;;;;;;23.69;41.56;94129.16;4998616;28;20026;-77
2021/08/10 02:39:53;;;;;;;7.93;7.13;;;;;;;23.71;42.27;94120.63;4994346;28;20787;-77
2021/08/10 02:42:25;;;;;;;8.43;6.03;;;;;;;23.70;41.91;94135.38;4998291;28;20042;-76
2021/08/10 02:44:53;;;;;;;12.13;6.22;;;;;;;23.75;42.21;94141.19;4995375;28;20111;-77
2021/08/10 02:47:19;;;;;;;11.95;7.03;;;;;;;23.74;41.97;94136.91;4994949;28;20042;-77
2021/08/10 02:49:45;;;;;;;8.02;6.32;;;;;;;23.86;41.61;94147.38;4995140;28;20049;-76
2021/08/10 02:52:11;;;;;;;7.57;6.45;;;;;;;23.88;41.05;94142.34;4994964;28;20036;-77
2021/08/10 02:54:38;;;;;;;7.75;5.72;;;;;;;23.93;40.94;94135.72;4995646;28;20035;-77
2021/08/10 02:57:14;;;;;;;6.15;5.50;;;;;;;23.87;40.99;94121.75;4994476;28;20092;-77
2021/08/10 02:59:50;;;;;;;10.10;6.72;;;;;;;23.83;40.95;94125.66;4993884;28;20049;-77
2021/08/10 03:02:24;;;;;;;7.57;5.68;;;;;;;23.98;41.35;94143.47;4997462;28;21306;-77
2021/08/10 03:04:58;;;;;;;9.05;6.03;;;;;;;23.97;40.87;94145.44;4994239;28;20033;-77
2021/08/10 03:07:29;;;;;;;6.40;5.65;;;;;;;23.86;41.25;94141.94;4994366;28;20547;-77
2021/08/10 03:09:59;;;;;;;6.93;6.13;;;;;;;23.87;41.30;94150.84;4995050;28;20038;-78
2021/08/10 03:12:29;;;;;;;9.32;6.47;;;;;;;23.77;41.43;94152.41;4995999;28;20026;-76
2021/08/10 03:14:57;;;;;;;9.02;6.28;;;;;;;23.72;41.57;94141.94;4993893;28;20045;-77
2021/08/10 03:17:26;;;;;;;7.13;6.40;;;;;;;23.82;41.28;94160.19;4995746;28;20038;-77
2021/08/10 03:19:54;;;;;;;7.35;6.22;;;;;;;23.85;40.91;94154.00;4998169;28;20034;-77
2021/08/10 03:22:20;;;;;;;9.20;6.57;;;;;;;23.71;41.55;94134.97;4998470;28;20112;-78
2021/08/10 03:24:49;;;;;;;6.53;5.80;;;;;;;23.79;41.41;94163.69;4992542;28;20037;-77
2021/08/10 03:27:16;;;;;;;6.82;6.13;;;;;;;23.84;41.30;94168.72;4995683;28;20030;-76
2021/08/10 03:29:43;;;;;;;12.65;6.57;;;;;;;23.71;41.13;94159.41;4996078;28;20544;-77
2021/08/10 03:32:09;;;;;;;12.80;5.90;;;;;;;23.68;41.45;94165.63;5000434;28;20441;-77
2021/08/10 03:34:36;;;;;;;9.90;5.90;;;;;;;23.65;41.40;94166.41;5000127;28;20037;-77
2021/08/10 03:37:02;;;;;;;10.10;6.07;;;;;;;23.57;41.06;94151.25;4996723;28;20034;-77
2021/08/10 03:39:28;;;;;;;10.35;5.78;;;;;;;23.74;41.51;94172.22;5002183;28;20038;-77
2021/08/10 03:41:54;;;;;;;8.10;6.18;;;;;;;23.73;40.96;94172.59;4997678;28;20056;-76
2021/08/10 03:44:20;;;;;;;8.13;7.07;;;;;;;23.70;41.19;94171.44;5000208;28;20045;-77
2021/08/10 03:46:50;;;;;;;11.98;6.97;;;;;;;23.52;41.18;94132.63;5008192;28;20025;-76
2021/08/10 03:49:21;;;;;;;9.93;7.40;;;;;;;23.69;41.10;94159.03;4999509;28;20392;-77
2021/08/10 03:51:47;;;;;;;7.88;6.65;;;;;;;23.63;41.19;94148.94;4998729;28;20072;-77
2021/08/10 03:54:12;;;;;;;8.95;6.80;;;;;;;23.56;41.64;94149.72;5000456;28;20042;-77
2021/08/10 03:56:39;;;;;;;9.57;6.45;;;;;;;23.71;40.96;94151.25;4997064;28;20092;-77
2021/08/10 03:59:07;;;;;;;11.68;7.00;;;;;;;23.73;41.37;94157.09;5002532;28;20042;-77
2021/08/10 04:01:36;;;;;;;9.77;6.22;;;;;;;23.73;41.67;94157.09;5001585;28;20601;-76
2021/08/10 04:04:02;;;;;;;10.52;6.03;;;;;;;23.66;41.68;94170.66;5001306;28;20065;-76
2021/08/10 04:06:29;;;;;;;8.57;5.80;;;;;;;23.60;42.00;94171.44;4997468;28;20207;-76
2021/08/10 04:08:54;;;;;;;10.05;6.25;;;;;;;23.55;41.40;94154.38;4997128;28;20841;-77
2021/08/10 04:11:20;;;;;;;9.48;6.13;;;;;;;23.51;41.75;94141.97;4996992;28;20095;-77
2021/08/10 04:13:47;;;;;;;16.38;7.25;;;;;;;23.62;42.03;94164.44;4987212;28;20538;-76
2021/08/10 04:16:16;;;;;;;16.25;5.93;;;;;;;23.64;42.40;94164.84;4998203;28;20132;-76
2021/08/10 04:18:43;;;;;;;13.98;6.22;;;;;;;23.64;42.42;94153.97;4999400;28;20046;-76
2021/08/10 04:21:09;;;;;;;8.80;7.00;;;;;;;23.68;42.86;94162.91;4995394;28;20128;-77
2021/08/10 04:23:34;;;;;;;11.85;6.57;;;;;;;23.62;42.97;94152.81;4994244;28;20442;-77
2021/08/10 04:26:00;;;;;;;7.43;6.07;;;;;;;23.82;42.16;94167.53;4999068;28;20091;-77
2021/08/10 04:28:25;;;;;;;11.23;6.68;;;;;;;23.90;42.79;94169.13;4998497;28;20092;-77
2021/08/10 04:30:51;;;;;;;9.73;6.90;;;;;;;23.96;42.84;94168.31;4996866;28;20051;-77
2021/08/10 04:33:17;;;;;;;15.02;7.40;;;;;;;24.00;42.79;94171.81;4993172;28;20038;-77
2021/08/10 04:35:42;;;;;;;12.27;6.53;;;;;;;23.96;43.67;94176.47;4995389;28;20053;-77
2021/08/10 04:38:08;;;;;;;10.90;7.95;;;;;;;24.07;42.49;94181.13;4983252;28;20508;-77
2021/08/10 04:40:34;;;;;;;15.05;7.57;;;;;;;24.22;42.50;94186.19;4998662;28;20531;-76
2021/08/10 04:43:00;;;;;;;16.02;8.48;;;;;;;24.37;41.85;94181.50;4997404;28;20088;-76
2021/08/10 04:45:26;;;;;;;17.85;9.75;;;;;;;24.43;41.99;94191.59;4999539;28;20030;-77
2021/08/10 04:47:55;;;;;;;9.60;8.02;;;;;;;24.51;42.08;94186.13;4998309;28;20045;-77
2021/08/10 04:50:21;;;;;;;12.52;9.23;;;;;;;24.57;40.85;94192.69;5000330;28;20038;-77
2021/08/10 04:52:47;;;;;;;13.10;8.68;;;;;;;24.64;41.66;94188.00;4994567;28;20032;-77
2021/08/10 04:55:13;;;;;;;12.93;9.38;;;;;;;24.59;40.93;94180.25;4999148;28;20258;-76
2021/08/10 04:57:38;;;;;;;15.43;8.82;;;;;;;24.60;41.63;94189.97;4999226;28;20066;-77
2021/08/10 05:00:05;;;;;;;10.27;8.80;;;;;;;24.67;40.64;94187.25;4997242;28;20038;-77
2021/08/10 05:02:31;;;;;;;12.15;9.00;;;;;;;24.61;40.34;94174.44;4996759;28;20052;-77
2021/08/10 05:04:56;;;;;;;14.15;8.52;;;;;;;24.73;41.25;94191.16;4999570;28;20850;-77
2021/08/10 05:07:22;;;;;;;12.85;9.05;;;;;;;24.69;41.83;94189.53;4997489;28;20032;-78
2021/08/10 05:09:47;;;;;;;17.15;9.90;;;;;;;24.72;41.51;94200.47;4998320;28;20030;-76
2021/08/10 05:12:12;;;;;;;13.18;9.45;;;;;;;24.74;40.77;94195.38;4992434;28;20413;-77
2021/08/10 05:14:38;;;;;;;12.93;10.02;;;;;;;24.65;41.66;94181.41;4991514;28;20049;-77
2021/08/10 05:17:04;;;;;;;16.75;9.93;;;;;;;24.82;41.51;94194.22;4999577;28;20037;-78
2021/08/10 05:19:29;;;;;;;15.70;10.10;;;;;;;24.87;41.79;94198.47;4996673;28;20033;-76
2021/08/10 05:21:54;;;;;;;14.55;9.93;;;;;;;24.66;41.75;94161.22;4996407;28;20049;-77
2021/08/10 05:24:20;;;;;;;13.77;10.60;;;;;;;25.04;42.36;94205.75;4994594;28;20042;-77
2021/08/10 05:26:45;;;;;;;16.13;10.43;;;;;;;25.21;41.05;94190.53;4999082;28;20038;-77
2021/08/10 05:29:11;;;;;;;15.93;10.65;;;;;;;25.28;40.49;94188.53;4997388;28;20038;-77
2021/08/10 05:31:36;;;;;;;15.48;10.20;;;;;;;25.26;40.66;94187.41;4993124;28;20428;-77
2021/08/10 05:34:01;;;;;;;21.52;10.70;;;;;;;25.18;40.47;94183.91;4993488;28;20054;-76
2021/08/10 05:36:27;;;;;;;20.30;10.68;;;;;;;25.26;40.70;94201.00;4995555;28;20080;-77
2021/08/10 05:38:55;;;;;;;16.27;10.52;;;;;;;25.28;40.78;94195.94;4995685;28;20050;-78
2021/08/10 05:41:22;;;;;;;20.23;10.77;;;;;;;25.29;40.81;94181.16;4996009;28;20026;-76
2021/08/10 05:43:48;;;;;;;15.10;10.52;;;;;;;25.45;40.67;94184.19;4995854;28;20708;-77
2021/08/10 05:46:14;;;;;;;18.38;10.45;;;;;;;25.48;40.28;94180.66;5010419;28;20092;-77
2021/08/10 05:48:39;;;;;;;17.02;10.35;;;;;;;25.70;40.30;94181.31;4996044;28;20493;-77
2021/08/10 05:51:05;;;;;;;20.90;11.40;;;;;;;25.76;40.12;94193.34;4995603;28;20038;-77
2021/08/10 05:53:31;;;;;;;13.15;10.18;;;;;;;25.68;39.96;94187.16;4992530;28;20073;-77
2021/08/10 05:55:58;;;;;;;18.50;11.68;;;;;;;25.60;40.06;94196.56;4996497;28;20080;-77
2021/08/10 05:58:24;;;;;;;17.10;10.70;;;;;;;25.73;39.74;94204.22;4995883;28;20029;-77
2021/08/10 06:00:49;;;;;;;14.90;10.40;;;;;;;25.80;40.19;94204.19;4993491;28;20906;-76
2021/08/10 06:03:14;;;;;;;21.30;11.30;;;;;;;25.82;39.49;94190.94;4969652;28;20089;-77
2021/08/10 06:05:42;;;;;;;14.90;9.80;;;;;;;26.09;39.72;94202.81;4985305;28;20040;-76
2021/08/10 06:08:08;;;;;;;16.02;10.95;;;;;;;26.18;38.24;94203.13;4997088;28;20429;-77
2021/08/10 06:10:33;;;;;;;18.60;11.05;;;;;;;26.28;38.34;94206.94;4993444;28;20041;-77
2021/08/10 06:12:59;;;;;;;14.07;9.55;;;;;;;26.05;38.56;94183.00;4983187;28;20034;-77
2021/08/10 06:15:24;;;;;;;19.85;11.30;;;;;;;26.09;38.74;94195.44;4990306;28;20045;-78
2021/08/10 06:17:50;;;;;;;22.13;10.80;;;;;;;26.21;38.50;94210.50;4998484;28;20046;-77
2021/08/10 06:20:15;;;;;;;17.75;10.43;;;;;;;25.97;38.94;94187.72;4994533;28;20204;-77
2021/08/10 06:22:41;;;;;;;21.25;11.70;;;;;;;26.11;38.70;94214.84;5000306;28;20034;-77
2021/08/10 06:25:07;;;;;;;13.85;10.60;;;;;;;26.13;38.72;94200.84;4992917;28;20417;-77
2021/08/10 06:27:32;;;;;;;15.82;9.95;;;;;;;26.07;38.75;94197.00;4996382;28;20400;-77
2021/08/10 06:29:58;;;;;;;19.48;11.25;;;;;;;26.28;38.08;94209.66;4994864;28;20046;-76
2021/08/10 06:32:23;;;;;;;23.85;10.88;;;;;;;26.19;38.13;94201.97;4994687;28;20556;-77
2021/08/10 06:34:48;;;;;;;17.27;9.95;;;;;;;25.95;38.47;94153.91;4998310;28;20556;-77
2021/08/10 06:37:14;;;;;;;14.75;10.75;;;;;;;26.46;37.94;94204.84;4997757;28;20415;-77
2021/08/10 06:39:39;;;;;;;14.77;10.25;;;;;;;26.56;38.94;94206.69;4998933;28;20044;-77
2021/08/10 06:42:04;;;;;;;19.52;10.77;;;;;;;26.57;38.55;94197.31;4994008;28;20392;-77
2021/08/10 06:44:30;;;;;;;17.88;10.65;;;;;;;26.63;38.01;94189.47;4995518;28;20045;-77
2021/08/10 06:46:56;;;;;;;18.25;10.13;;;;;;;26.71;38.05;94201.84;4989290;28;20508;-77
2021/08/10 06:49:21;;;;;;;18.13;10.13;;;;;;;26.70;37.61;94183.94;4995521;28;20492;-77
2021/08/10 06:51:47;;;;;;;21.73;11.18;;;;;;;26.70;37.38;94167.56;4996122;28;20038;-77
2021/08/10 06:54:12;;;;;;;18.67;10.05;;;;;;;26.89;38.09;94192.28;4993055;28;20069;-77
2021/08/10 06:56:37;;;;;;;15.07;9.45;;;;;;;26.91;37.52;94191.88;4992559;28;20053;-77
2021/08/10 06:59:04;;;;;;;24.35;10.90;;;;;;;27.06;37.29;94200.69;4995149;28;20128;-77
2021/08/10 07:01:30;;;;;;;13.95;10.30;;;;;;;27.16;36.91;94200.56;4988895;28;20290;-77
2021/08/10 07:03:56;;;;;;;19.58;10.30;;;;;;;27.13;37.39;94197.88;4997560;28;20044;-77
2021/08/10 07:06:22;;;;;;;17.95;9.55;;;;;;;27.19;36.35;94188.81;4992401;28;20052;-77
2021/08/10 07:08:52;;;;;;;14.73;9.68;;;;;;;27.28;36.76;94185.56;4993688;28;20037;-78
2021/08/10 07:11:18;;;;;;;20.58;11.48;;;;;;;27.42;36.39;94190.88;4997275;28;20037;-77
2021/08/10 07:13:43;;;;;;;18.95;12.57;;;;;;;27.56;36.53;94195.34;4988338;28;20467;-77
2021/08/10 07:16:10;;;;;;;17.27;10.73;;;;;;;27.65;35.76;94187.44;4995916;28;20042;-77
2021/08/10 07:18:38;;;;;;;13.07;10.45;;;;;;;27.67;35.03;94202.22;4994766;28;20041;-77
2021/08/10 07:21:04;;;;;;;13.68;8.57;;;;;;;27.74;34.86;94196.66;4992234;28;20044;-77
2021/08/10 07:23:30;;;;;;;17.55;8.18;;;;;;;27.80;34.71;94184.06;4997697;28;20156;-77
2021/08/10 07:25:55;;;;;;;14.93;8.45;;;;;;;27.94;34.83;94194.00;4997388;28;20452;-77
2021/08/10 07:28:21;;;;;;;16.40;8.70;;;;;;;27.98;34.88;94188.47;4993387;28;20120;-76
2021/08/10 07:30:46;;;;;;;16.45;8.07;;;;;;;27.93;33.62;94189.72;4995226;28;20592;-77
2021/08/10 07:33:12;;;;;;;17.38;7.95;;;;;;;27.91;33.52;94183.13;4995877;28;20059;-77
2021/08/10 07:35:37;;;;;;;13.27;8.65;;;;;;;27.95;34.67;94173.69;4994626;28;20659;-76
2021/08/10 07:38:03;;;;;;;11.23;8.10;;;;;;;28.12;33.84;94180.84;4996235;28;20546;-76
2021/08/10 07:40:28;;;;;;;13.70;7.88;;;;;;;28.23;33.42;94184.16;4996827;28;20499;-76
2021/08/10 07:42:54;;;;;;;12.90;7.22;;;;;;;28.24;32.83;94191.19;4996676;28;20060;-76
2021/08/10 07:45:19;;;;;;;11.52;7.20;;;;;;;28.28;32.94;94177.44;4995386;28;20035;-76
2021/08/10 07:47:45;;;;;;;8.25;6.32;;;;;;;28.40;31.18;94187.03;4995409;28;20533;-77
2021/08/10 07:50:10;;;;;;;9.15;6.82;;;;;;;28.42;31.67;94184.63;4998325;28;20044;-76
2021/08/10 07:52:36;;;;;;;9.25;6.32;;;;;;;28.36;31.46;94191.75;4994037;28;20045;-77
2021/08/10 07:55:01;;;;;;;13.60;7.03;;;;;;;28.25;32.20;94178.28;4996825;28;20566;-77
2021/08/10 07:57:27;;;;;;;10.88;7.10;;;;;;;28.29;32.35;94170.03;4991666;28;20517;-77
2021/08/10 07:59:52;;;;;;;11.75;7.05;;;;;;;28.33;32.61;94160.56;4994690;28;20532;-76
2021/08/10 08:02:18;;;;;;;12.60;7.13;;;;;;;28.56;33.24;94181.63;4991047;28;20048;-78
2021/08/10 08:04:43;;;;;;;12.75;8.13;;;;;;;28.61;33.02;94176.44;4993091;28;20034;-76
2021/08/10 08:07:09;;;;;;;11.23;7.63;;;;;;;28.67;32.03;94157.59;4994326;28;20034;-76
2021/08/10 08:09:34;;;;;;;10.40;8.07;;;;;;;28.74;32.05;94160.22;4996794;28;20038;-77
2021/08/10 08:12:00;;;;;;;13.15;7.10;;;;;;;28.81;32.24;94173.75;4995735;28;20409;-76
2021/08/10 08:14:25;;;;;;;15.65;8.18;;;;;;;28.81;32.32;94160.06;4995238;28;20045;-77
2021/08/10 08:16:51;;;;;;;9.32;6.82;;;;;;;28.98;32.12;94175.38;4990513;28;20052;-76
2021/08/10 08:19:16;;;;;;;11.98;8.18;;;;;;;28.97;31.98;94162.88;4996992;28;20033;-76
2021/08/10 08:21:42;;;;;;;13.05;8.07;;;;;;;28.98;31.73;94160.91;4995993;28;20456;-76
2021/08/10 08:24:08;;;;;;;8.68;7.63;;;;;;;29.17;32.27;94170.31;4997111;28;20125;-77
2021/08/10 08:26:34;;;;;;;12.73;7.22;;;;;;;29.23;31.34;94168.63;4993631;28;20068;-77
2021/08/10 08:28:59;;;;;;;13.80;7.70;;;;;;;29.31;31.41;94156.31;4995489;28;20504;-77
2021/08/10 08:31:26;;;;;;;10.93;7.80;;;;;;;29.50;31.22;94172.72;4999863;28;20472;-77
2021/08/10 08:33:52;;;;;;;12.25;7.68;;;;;;;29.57;31.25;94169.03;4995963;28;20053;-77
2021/08/10 08:36:17;;;;;;;13.43;8.43;;;;;;;29.65;31.40;94169.63;4994706;28;20626;-76
2021/08/10 08:38:42;;;;;;;18.30;8.70;;;;;;;29.56;30.21;94151.06;4997188;28;20104;-76
2021/08/10 08:41:10;;;;;;;15.48;8.30;;;;;;;29.48;33.10;94149.66;4996616;28;20452;-77
2021/08/10 08:43:38;;;;;;;11.55;7.93;;;;;;;29.59;31.22;94152.94;4993386;28;20041;-77
2021/08/10 08:46:04;;;;;;;10.18;7.90;;;;;;;29.58;30.87;94154.13;4995228;28;20677;-77
2021/08/10 08:48:31;;;;;;;11.55;7.95;;;;;;;29.57;30.13;94154.56;4994898;28;20079;-77
2021/08/10 08:51:01;;;;;;;15.43;7.88;;;;;;;29.67;31.74;94150.81;4992431;28;20416;-76
2021/08/10 08:53:27;;;;;;;11.63;7.57;;;;;;;29.70;31.40;94153.50;4997584;28;20042;-76
2021/08/10 08:55:53;;;;;;;14.82;8.40;;;;;;;29.59;30.45;94119.28;4995787;28;20025;-76
2021/08/10 09:00:53;;;;;;;16.35;8.60;;;;;;;29.49;30.71;94140.25;5156747;23;20041;-74
2021/08/10 09:03:18;;;;;;;12.45;8.15;;;;;;;29.35;30.73;94146.03;4992656;28;20860;-75
2021/08/10 09:05:45;;;;;;;11.77;8.60;;;;;;;29.55;30.96;94141.28;4994077;28;20097;-75
2021/08/10 09:08:29;;;;;;;11.77;8.07;;;;;;;29.82;30.78;94147.31;4996590;28;20041;-76
2021/08/10 09:10:56;;;;;;;12.20;8.50;;;;;;;29.84;30.13;94122.22;4994012;28;20447;-75
2021/08/10 09:13:22;;;;;;;15.98;8.40;;;;;;;29.87;29.74;94141.31;4995097;28;20061;-76
2021/08/10 09:15:48;;;;;;;16.73;8.60;;;;;;;29.95;29.80;94128.22;4995399;28;20578;-75
2021/08/10 09:18:19;;;;;;;13.40;8.27;;;;;;;29.99;29.62;94133.59;4992531;28;20479;-77
2021/08/10 09:21:19;;;;;;;8.65;7.10;;;;;;;29.86;29.11;94123.34;4995483;28;20038;-76
2021/08/10 09:24:19;;;;;;;12.98;7.93;;;;;;;29.83;29.47;94124.19;4965937;28;20443;-76
2021/08/10 09:26:44;;;;;;;13.20;8.20;;;;;;;29.89;29.74;94127.19;4993349;28;20038;-77
2021/08/10 09:29:11;;;;;;;10.45;7.43;;;;;;;29.99;29.42;94106.97;4996442;28;20793;-75
2021/08/10 09:31:44;;;;;;;14.55;7.30;;;;;;;30.09;29.67;94121.59;4997348;28;20034;-76
2021/08/10 09:34:21;;;;;;;11.85;6.88;;;;;;;30.05;29.25;94104.47;4995973;28;20049;-76
2021/08/10 09:36:47;;;;;;;8.48;6.32;;;;;;;30.23;29.29;94115.78;4995743;28;20570;-76
2021/08/10 09:39:13;;;;;;;10.18;6.57;;;;;;;30.33;28.73;94114.72;4997053;28;20046;-75
2021/08/10 09:41:40;;;;;;;16.25;7.03;;;;;;;30.24;28.41;94118.09;4998860;28;20045;-76
2021/08/10 09:44:14;;;;;;;15.18;7.22;;;;;;;30.18;29.21;94105.31;4993059;28;20037;-76
2021/08/10 09:46:51;;;;;;;12.82;6.63;;;;;;;30.13;28.27;94089.34;4996205;28;20033;-76
2021/08/10 09:49:20;;;;;;;9.82;6.28;;;;;;;30.17;27.97;94106.50;4991838;28;20093;-77
2021/08/10 09:51:49;;;;;;;10.20;5.95;;;;;;;30.36;28.24;94094.63;4992233;28;20049;-75
2021/08/10 09:54:16;;;;;;;10.10;6.07;;;;;;;30.60;28.11;94104.16;4994559;28;20038;-76
2021/08/10 09:56:49;;;;;;;11.98;6.70;;;;;;;30.63;28.14;94083.31;4993918;28;20045;-76
2021/08/10 09:59:17;;;;;;;8.83;6.30;;;;;;;30.82;27.50;94100.84;4989547;28;20816;-76
2021/08/10 10:01:45;;;;;;;6.82;6.18;;;;;;;30.88;30.30;94099.13;4974530;28;20104;-76
2021/08/10 10:04:18;;;;;;;10.75;6.32;;;;;;;30.91;27.16;94093.50;4977311;28;20488;-76
2021/08/10 10:06:45;;;;;;;11.98;5.47;;;;;;;30.95;26.62;94087.91;4978917;28;20050;-76
2021/08/10 10:09:12;;;;;;;6.30;5.15;;;;;;;30.87;26.72;94079.13;4975447;28;20037;-76
2021/08/10 10:11:41;;;;;;;12.00;5.80;;;;;;;31.02;26.92;94090.47;4978235;28;20029;-76
2021/08/10 10:14:08;;;;;;;9.52;5.97;;;;;;;30.90;26.37;94077.47;4975144;28;20827;-78
2021/08/10 10:16:34;;;;;;;5.38;4.78;;;;;;;31.00;26.61;94090.13;4977762;28;20021;-76
2021/08/10 10:19:05;;;;;;;8.32;5.32;;;;;;;31.00;26.65;94079.13;4980885;28;20074;-77
2021/08/10 10:21:32;;;;;;;10.68;6.10;;;;;;;30.95;26.85;94091.44;4975559;28;20053;-75
2021/08/10 10:24:02;;;;;;;11.73;5.55;;;;;;;30.88;26.26;94079.91;4978379;28;20117;-77
2021/08/10 10:26:30;;;;;;;7.88;5.45;;;;;;;30.84;26.70;94060.00;4982505;28;20035;-76
2021/08/10 10:28:56;;;;;;;6.55;5.68;;;;;;;30.76;26.55;94042.97;4978905;28;20150;-76
2021/08/10 10:31:23;;;;;;;8.63;4.72;;;;;;;31.02;27.09;94073.97;4978255;28;20056;-76
2021/08/10 10:33:49;;;;;;;7.90;5.72;;;;;;;30.97;26.62;94069.03;4973173;28;20048;-76
2021/08/10 10:36:14;;;;;;;7.93;5.20;;;;;;;31.12;26.82;94073.66;4978851;28;20042;-76
2021/08/10 10:38:43;;;;;;;11.45;5.80;;;;;;;31.22;27.45;94069.06;4976002;28;20385;-76
2021/08/10 10:41:11;;;;;;;8.52;4.97;;;;;;;31.32;27.11;94065.22;4978207;28;20643;-75
2021/08/10 10:43:36;;;;;;;8.80;5.43;;;;;;;31.37;26.74;94066.66;4974262;28;20033;-76
2021/08/10 10:46:23;;;;;;;6.22;5.18;;;;;;;31.44;26.59;94058.94;4975985;28;20042;-76
2021/08/10 10:48:48;;;;;;;8.40;5.20;;;;;;;31.35;26.41;94049.81;4979904;28;20135;-76
2021/08/10 10:51:21;;;;;;;10.23;5.00;;;;;;;31.39;26.93;94065.00;4977293;28;20822;-77
2021/08/10 10:53:46;;;;;;;12.30;5.97;;;;;;;31.33;26.20;94044.03;4977022;28;20181;-76
2021/08/10 10:56:27;;;;;;;6.07;5.35;;;;;;;31.44;25.94;94058.94;4976617;28;20046;-78
2021/08/10 10:59:16;;;;;;;7.05;6.00;;;;;;;31.36;25.82;94057.63;4984294;28;20038;-76
2021/08/10 11:01:41;;;;;;;8.68;5.70;;;;;;;31.43;25.64;94059.41;4974052;28;20880;-76
2021/08/10 11:04:09;;;;;;;8.55;5.65;;;;;;;31.35;25.78;94050.59;4975984;28;20039;-76
2021/08/10 11:06:49;;;;;;;10.02;4.90;;;;;;;31.38;25.96;94047.00;4991926;28;20039;-76
2021/08/10 11:09:36;;;;;;;7.30;5.43;;;;;;;31.47;25.53;94041.59;4977775;28;20465;-77
2021/08/10 11:12:02;;;;;;;9.05;5.00;;;;;;;31.48;25.98;94037.59;4973722;28;20037;-76
2021/08/10 11:14:37;;;;;;;11.20;5.85;;;;;;;31.64;25.74;94045.72;4975512;28;20352;-76
2021/08/10 11:17:08;;;;;;;10.27;5.05;;;;;;;31.70;26.48;94039.69;4992133;28;20045;-76
2021/08/10 11:19:44;;;;;;;7.78;4.90;;;;;;;31.84;25.53;94041.97;4975073;28;20046;-76
2021/08/10 11:22:16;;;;;;;9.55;5.43;;;;;;;31.81;25.63;94037.38;4978118;28;20046;-76
2021/08/10 11:24:45;;;;;;;7.50;5.63;;;;;;;31.86;25.45;94028.56;4991196;28;20039;-77
2021/08/10 11:27:33;;;;;;;8.52;5.15;;;;;;;31.81;25.46;94040.88;4978909;28;20034;-77
2021/08/10 11:30:00;;;;;;;10.25;5.22;;;;;;;31.69;25.76;94038.16;4974194;28;20042;-76
2021/08/10 11:32:35;;;;;;;13.10;4.47;;;;;;;31.74;25.37;94043.09;4994737;28;20060;-75